Wetterstation Vordersexau
Wetterdaten: Woche 27.11.17 - 03.12.17 (KW48)
Datum Zeit Temp. A. Feuchte A. Luftdruck Regen Wind Richtung Taupunkt Windchill Windben
27.11.2017 00:00 2,6 C 84 % 1025,4 hPa 0,0 l/m 0,0 km/h W-SW 0,2 C 2,6 C 0,0 km/h
27.11.2017 01:00 2,8 C 85 % 1025,6 hPa 0,0 l/m 6,5 km/h W-SW 0,5 C 2,7 C 3,6 km/h
27.11.2017 02:00 2,8 C 85 % 1025,9 hPa 0,0 l/m 20,7 km/h S-SW 0,5 C -6,3 C 11,5 km/h
27.11.2017 03:00 2,4 C 85 % 1025,6 hPa 0,0 l/m 0,0 km/h S-SW 0,1 C 2,4 C 0,0 km/h
27.11.2017 04:00 2,9 C 84 % 1025,0 hPa 0,0 l/m 21,4 km/h S-SW 0,5 C -6,5 C 11,9 km/h
27.11.2017 05:00 3,3 C 83 % 1024,8 hPa 0,0 l/m 3,2 km/h W-SW 0,7 C 3,3 C 1,8 km/h
27.11.2017 06:00 3,3 C 83 % 1024,7 hPa 0,0 l/m 21,4 km/h W 0,7 C -5,9 C 11,9 km/h
27.11.2017 07:00 3,4 C 83 % 1024,6 hPa 0,0 l/m 22,7 km/h SW 0,8 C -6,3 C 12,6 km/h
27.11.2017 08:00 3,9 C 83 % 1024,6 hPa 0,0 l/m 21,4 km/h SW 1,3 C -5,2 C 11,9 km/h
27.11.2017 09:00 4,3 C 82 % 1024,4 hPa 0,0 l/m 18,8 km/h SW 1,5 C -3,6 C 10,4 km/h
27.11.2017 10:00 5,5 C 77 % 1023,6 hPa 0,0 l/m 27,2 km/h W-SW 1,8 C -4,9 C 15,1 km/h
27.11.2017 11:00 6,8 C 74 % 1022,8 hPa 0,0 l/m 26,6 km/h W-SW 2,5 C -3,0 C 14,8 km/h
27.11.2017 12:00 7,0 C 71 % 1022,1 hPa 0,0 l/m 24,0 km/h W-SW 2,1 C -1,9 C 13,3 km/h
27.11.2017 13:00 6,7 C 72 % 1020,9 hPa 0,0 l/m 16,8 km/h W 2,0 C 0,3 C 9,4 km/h
27.11.2017 14:00 6,3 C 75 % 1020,5 hPa 0,0 l/m 31,1 km/h W-SW 2,2 C -4,8 C 17,3 km/h
27.11.2017 15:00 5,7 C 78 % 1020,1 hPa 0,0 l/m 20,1 km/h S-SW 2,2 C -2,3 C 11,2 km/h
27.11.2017 16:00 6,1 C 76 % 1019,4 hPa 0,0 l/m 28,5 km/h S 2,2 C -4,4 C 15,8 km/h
27.11.2017 17:00 6,1 C 76 % 1018,6 hPa 0,0 l/m 9,7 km/h S-SW 2,2 C 3,5 C 5,4 km/h
27.11.2017 18:00 6,2 C 74 % 1018,1 hPa 0,0 l/m 23,3 km/h SW 1,9 C -2,8 C 13,0 km/h
27.11.2017 19:00 6,3 C 74 % 1017,2 hPa 0,0 l/m 22,7 km/h SW 2,0 C -2,5 C 12,6 km/h
27.11.2017 20:00 6,4 C 73 % 1016,5 hPa 0,0 l/m 48,6 km/h S-SW 1,9 C -7,7 C 27,0 km/h
27.11.2017 21:00 6,1 C 74 % 1016,2 hPa 0,0 l/m 22,7 km/h SW 1,8 C -2,7 C 12,6 km/h
27.11.2017 22:00 5,9 C 78 % 1015,2 hPa 0,0 l/m 14,3 km/h SW 2,4 C 0,5 C 7,9 km/h
27.11.2017 23:00 5,3 C 80 % 1014,3 hPa 0,0 l/m 14,9 km/h W 2,1 C -0,5 C 8,3 km/h
28.11.2017 00:00 6,3 C 75 % 1013,4 hPa 0,0 l/m 21,4 km/h SW 2,2 C -2,0 C 11,9 km/h
28.11.2017 01:00 6,6 C 72 % 1012,6 hPa 0,0 l/m 24,0 km/h W-SW 1,9 C -2,5 C 13,3 km/h
28.11.2017 02:00 6,7 C 71 % 1011,7 hPa 0,0 l/m 22,0 km/h W 1,8 C -1,7 C 12,2 km/h
28.11.2017 03:00 6,6 C 71 % 1011,0 hPa 0,0 l/m 21,4 km/h SW 1,7 C -1,6 C 11,9 km/h
28.11.2017 04:00 6,7 C 70 % 1010,5 hPa 0,0 l/m 26,6 km/h W-SW 1,6 C -3,1 C 14,8 km/h
28.11.2017 05:00 6,8 C 71 % 1009,7 hPa 0,0 l/m 31,1 km/h W-SW 1,9 C -4,1 C 17,3 km/h
28.11.2017 06:00 6,7 C 72 % 1009,3 hPa 0,0 l/m 36,3 km/h W-SW 2,0 C -5,3 C 20,2 km/h
28.11.2017 07:00 6,6 C 72 % 1009,2 hPa 0,0 l/m 20,1 km/h W-SW 1,9 C -1,1 C 11,2 km/h
28.11.2017 08:00 6,3 C 73 % 1009,2 hPa 0,0 l/m 35,0 km/h S 1,8 C -5,7 C 19,4 km/h
28.11.2017 09:00 4,9 C 81 % 1009,2 hPa 0,0 l/m 22,0 km/h W-SW 1,9 C -4,1 C 12,2 km/h
28.11.2017 10:00 4,5 C 84 % 1009,3 hPa 0,5 l/m 22,0 km/h SW 2,0 C -4,6 C 12,2 km/h
28.11.2017 11:00 4,3 C 85 % 1008,6 hPa 0,5 l/m 22,0 km/h S 2,0 C -4,9 C 12,2 km/h
28.11.2017 12:00 4,3 C 85 % 1007,9 hPa 1,0 l/m 18,1 km/h S-SW 2,0 C -3,3 C 10,1 km/h
28.11.2017 13:00 4,2 C 85 % 1007,2 hPa 0,0 l/m 20,1 km/h S 1,9 C -4,2 C 11,2 km/h
28.11.2017 14:00 3,8 C 85 % 1006,7 hPa 1,0 l/m 27,2 km/h SW 1,5 C -7,3 C 15,1 km/h
28.11.2017 15:00 3,6 C 84 % 1006,6 hPa 1,0 l/m 9,7 km/h W-SW 1,2 C 0,8 C 5,4 km/h
28.11.2017 16:00 3,1 C 83 % 1006,3 hPa 1,6 l/m 22,0 km/h S-SO 0,5 C -6,4 C 12,2 km/h
28.11.2017 17:00 2,9 C 83 % 1005,9 hPa 1,0 l/m 0,0 km/h S-SW 0,3 C 2,9 C 0,0 km/h
28.11.2017 18:00 2,4 C 82 % 1005,7 hPa 0,5 l/m 7,8 km/h S-SW -0,4 C 1,1 C 4,3 km/h
28.11.2017 19:00 2,2 C 81 % 1005,7 hPa 1,0 l/m 22,7 km/h SO -0,7 C -7,9 C 12,6 km/h
28.11.2017 20:00 2,4 C 81 % 1005,4 hPa 0,5 l/m 3,9 km/h S -0,5 C 2,4 C 2,2 km/h
28.11.2017 21:00 2,8 C 81 % 1005,3 hPa 0,5 l/m 0,0 km/h SW -0,1 C 2,8 C 0,0 km/h
28.11.2017 22:00 3,1 C 82 % 1005,3 hPa 0,0 l/m 0,0 km/h S 0,3 C 3,1 C 0,0 km/h
28.11.2017 23:00 2,8 C 83 % 1005,2 hPa 0,0 l/m 0,0 km/h SO 0,2 C 2,8 C 0,0 km/h
29.11.2017 00:00 2,3 C 82 % 1004,9 hPa 0,0 l/m 0,0 km/h SO -0,4 C 2,3 C 0,0 km/h
29.11.2017 01:00 2,4 C 81 % 1004,6 hPa 0,0 l/m 0,0 km/h SO -0,5 C 2,4 C 0,0 km/h
29.11.2017 02:00 2,1 C 81 % 1004,1 hPa 0,0 l/m 0,0 km/h S-SW -0,8 C 2,1 C 0,0 km/h
29.11.2017 03:00 1,9 C 80 % 1003,8 hPa 0,0 l/m 14,3 km/h S -1,2 C -4,3 C 7,9 km/h
29.11.2017 04:00 3,1 C 82 % 1003,7 hPa 0,0 l/m 0,0 km/h O-SO 0,3 C 3,1 C 0,0 km/h
29.11.2017 05:00 2,8 C 84 % 1003,5 hPa 0,0 l/m 0,0 km/h O-SO 0,4 C 2,8 C 0,0 km/h
29.11.2017 06:00 2,3 C 84 % 1003,3 hPa 0,0 l/m 0,0 km/h SO -0,1 C 2,3 C 0,0 km/h
29.11.2017 07:00 2,6 C 83 % 1003,4 hPa 0,0 l/m 0,0 km/h SO 0,0 C 2,6 C 0,0 km/h
29.11.2017 08:00 3,4 C 84 % 1003,7 hPa 0,0 l/m 0,0 km/h S-SW 1,0 C 3,4 C 0,0 km/h
29.11.2017 09:00 3,3 C 84 % 1004,1 hPa 0,0 l/m 5,8 km/h NW 0,9 C 3,3 C 3,2 km/h
29.11.2017 10:00 2,5 C 84 % 1004,5 hPa 1,6 l/m 0,0 km/h O-SO 0,1 C 2,5 C 0,0 km/h
29.11.2017 11:00 3,1 C 83 % 1004,2 hPa 0,5 l/m 0,0 km/h O-SO 0,5 C 3,1 C 0,0 km/h
29.11.2017 12:00 3,4 C 84 % 1004,1 hPa 0,0 l/m 0,0 km/h O-SO 1,0 C 3,4 C 0,0 km/h
29.11.2017 13:00 4,8 C 84 % 1003,7 hPa 0,5 l/m 0,0 km/h SO 2,3 C 4,8 C 0,0 km/h
29.11.2017 14:00 4,3 C 85 % 1003,8 hPa 0,0 l/m 0,0 km/h N 2,0 C 4,3 C 0,0 km/h
29.11.2017 15:00 3,5 C 86 % 1003,6 hPa 0,0 l/m 0,0 km/h N 1,4 C 3,5 C 0,0 km/h
29.11.2017 16:00 2,2 C 86 % 1004,0 hPa 0,0 l/m 0,0 km/h N 0,1 C 2,2 C 0,0 km/h
29.11.2017 17:00 1,0 C 85 % 1004,1 hPa 0,0 l/m 0,0 km/h N -1,2 C 1,0 C 0,0 km/h
29.11.2017 18:00 1,2 C 84 % 1004,5 hPa 0,0 l/m 0,0 km/h N -1,2 C 1,2 C 0,0 km/h
29.11.2017 19:00 0,9 C 84 % 1004,7 hPa 0,0 l/m 0,0 km/h N -1,5 C 0,9 C 0,0 km/h
29.11.2017 20:00 -0,1 C 84 % 1005,0 hPa 0,0 l/m 0,0 km/h N -2,5 C -0,1 C 0,0 km/h
29.11.2017 21:00 -0,8 C 83 % 1005,1 hPa 0,0 l/m 0,0 km/h N -3,3 C -0,8 C 0,0 km/h
29.11.2017 22:00 -0,4 C 82 % 1005,0 hPa 0,0 l/m 0,0 km/h N -3,1 C -0,4 C 0,0 km/h
29.11.2017 23:00 0,1 C 81 % 1004,9 hPa 0,0 l/m 0,0 km/h N -2,8 C 0,1 C 0,0 km/h
30.11.2017 00:00 0,4 C 81 % 1004,9 hPa 0,0 l/m 0,0 km/h N -2,5 C 0,4 C 0,0 km/h
30.11.2017 01:00 0,4 C 81 % 1004,5 hPa 0,0 l/m 0,0 km/h N -2,5 C 0,4 C 0,0 km/h
30.11.2017 02:00 0,4 C 80 % 1004,7 hPa 0,0 l/m 0,0 km/h W-SW -2,6 C 0,4 C 0,0 km/h
30.11.2017 03:00 0,8 C 79 % 1004,5 hPa 0,0 l/m 0,0 km/h SW -2,4 C 0,8 C 0,0 km/h
30.11.2017 04:00 1,0 C 78 % 1004,5 hPa 0,5 l/m 0,0 km/h W-SW -2,4 C 1,0 C 0,0 km/h
30.11.2017 05:00 1,3 C 77 % 1004,6 hPa 0,5 l/m 0,0 km/h S -2,3 C 1,3 C 0,0 km/h
30.11.2017 06:00 1,3 C 77 % 1004,4 hPa 0,5 l/m 0,0 km/h S-SW -2,3 C 1,3 C 0,0 km/h
30.11.2017 07:00 1,1 C 77 % 1004,6 hPa 0,0 l/m 14,3 km/h S-SW -2,5 C -5,2 C 7,9 km/h
30.11.2017 08:00 1,2 C 77 % 1004,9 hPa 0,5 l/m 0,0 km/h S -2,4 C 1,2 C 0,0 km/h
30.11.2017 09:00 1,8 C 76 % 1005,0 hPa 0,0 l/m 0,0 km/h S -2,0 C 1,8 C 0,0 km/h
30.11.2017 10:00 2,4 C 80 % 1005,1 hPa 0,0 l/m 18,8 km/h S -0,7 C -6,0 C 10,4 km/h
30.11.2017 11:00 3,0 C 86 % 1004,8 hPa 0,0 l/m 0,0 km/h W-SW 0,9 C 3,0 C 0,0 km/h
30.11.2017 12:00 3,5 C 85 % 1004,6 hPa 0,0 l/m 12,3 km/h S-SW 1,2 C -1,2 C 6,8 km/h
30.11.2017 13:00 3,4 C 85 % 1004,3 hPa 0,0 l/m 11,7 km/h S 1,1 C -0,9 C 6,5 km/h
30.11.2017 14:00 3,6 C 85 % 1004,2 hPa 0,0 l/m 10,4 km/h S-SO 1,3 C 0,2 C 5,8 km/h
30.11.2017 15:00 2,7 C 85 % 1004,3 hPa 0,0 l/m 17,5 km/h W-SW 0,4 C -5,0 C 9,7 km/h
30.11.2017 16:00 2,3 C 86 % 1004,3 hPa 0,0 l/m 6,5 km/h S-SO 0,2 C 2,2 C 3,6 km/h
30.11.2017 17:00 1,4 C 85 % 1004,8 hPa 0,5 l/m 0,0 km/h SO -0,8 C 1,4 C 0,0 km/h
30.11.2017 18:00 0,4 C 85 % 1005,2 hPa 0,0 l/m 0,0 km/h SO -1,8 C 0,4 C 0,0 km/h
30.11.2017 19:00 0,8 C 84 % 1005,2 hPa 0,0 l/m 0,0 km/h SO -1,6 C 0,8 C 0,0 km/h
30.11.2017 20:00 1,0 C 83 % 1004,8 hPa 0,0 l/m 0,0 km/h SO -1,6 C 1,0 C 0,0 km/h
30.11.2017 21:00 0,6 C 84 % 1004,5 hPa 0,0 l/m 0,0 km/h SW -1,8 C 0,6 C 0,0 km/h
30.11.2017 22:00 0,8 C 84 % 1004,8 hPa 0,0 l/m 2,6 km/h SW -1,6 C 0,8 C 1,4 km/h
30.11.2017 23:00 0,2 C 83 % 1004,7 hPa 0,0 l/m 0,0 km/h SW -2,3 C 0,2 C 0,0 km/h
01.12.2017 00:00 0,2 C 83 % 1005,0 hPa 0,0 l/m 4,5 km/h W-SW -2,3 C 0,2 C 2,5 km/h
01.12.2017 01:00 0,2 C 80 % 1005,3 hPa 0,0 l/m 2,6 km/h S-SW -2,8 C 0,2 C 1,4 km/h
01.12.2017 02:00 0,1 C 80 % 1005,9 hPa 0,0 l/m 0,0 km/h S-SW -2,9 C 0,1 C 0,0 km/h
01.12.2017 03:00 -0,1 C 80 % 1006,0 hPa 0,0 l/m 0,0 km/h S-SW -3,1 C -0,1 C 0,0 km/h
01.12.2017 04:00 -0,1 C 81 % 1006,3 hPa 0,0 l/m 0,0 km/h S-SW -3,0 C -0,1 C 0,0 km/h
01.12.2017 05:00 -0,6 C 82 % 1006,6 hPa 0,0 l/m 0,0 km/h S-SW -3,3 C -0,6 C 0,0 km/h
01.12.2017 06:00 -0,2 C 82 % 1007,0 hPa 0,0 l/m 0,0 km/h S-SW -2,9 C -0,2 C 0,0 km/h
01.12.2017 07:00 -0,5 C 82 % 1007,9 hPa 0,0 l/m 0,0 km/h S-SW -3,2 C -0,5 C 0,0 km/h
01.12.2017 08:00 0,1 C 81 % 1008,9 hPa 0,0 l/m 0,0 km/h S-SW -2,8 C 0,1 C 0,0 km/h
01.12.2017 09:00 0,6 C 80 % 1009,5 hPa 0,0 l/m 0,0 km/h N -2,4 C 0,6 C 0,0 km/h
01.12.2017 10:00 5,8 C 86 % 1009,9 hPa 0,0 l/m 0,0 km/h N-NO 3,6 C 5,8 C 0,0 km/h
01.12.2017 11:00 6,6 C 75 % 1010,0 hPa 1,0 l/m 0,0 km/h N-NO 2,5 C 6,6 C 0,0 km/h
01.12.2017 12:00 7,3 C 74 % 1010,1 hPa 1,0 l/m 0,0 km/h NO 3,0 C 7,3 C 0,0 km/h
01.12.2017 13:00 8,6 C 66 % 1010,3 hPa 0,5 l/m 0,0 km/h N-NO 2,6 C 8,6 C 0,0 km/h
01.12.2017 14:00 8,7 C 60 % 1010,5 hPa 0,0 l/m 0,0 km/h N 1,4 C 8,7 C 0,0 km/h
01.12.2017 15:00 3,5 C 71 % 1011,5 hPa 0,0 l/m 0,0 km/h N -1,3 C 3,5 C 0,0 km/h
01.12.2017 16:00 1,6 C 78 % 1012,0 hPa 0,0 l/m 0,0 km/h N -1,8 C 1,6 C 0,0 km/h
01.12.2017 17:00 1,2 C 81 % 1012,7 hPa 0,0 l/m 0,0 km/h N -1,7 C 1,2 C 0,0 km/h
01.12.2017 18:00 0,8 C 82 % 1013,3 hPa 0,0 l/m 0,0 km/h N -1,9 C 0,8 C 0,0 km/h
01.12.2017 19:00 -1,2 C 84 % 1013,8 hPa 0,0 l/m 0,0 km/h O-NO -3,5 C -1,2 C 0,0 km/h
01.12.2017 20:00 -2,0 C 85 % 1014,5 hPa 0,0 l/m 0,0 km/h O-NO -4,2 C -2,0 C 0,0 km/h
01.12.2017 21:00 -2,4 C 85 % 1015,1 hPa 0,0 l/m 0,0 km/h O-NO -4,6 C -2,4 C 0,0 km/h
01.12.2017 22:00 -1,8 C 86 % 1015,5 hPa 0,0 l/m 0,0 km/h O-NO -3,8 C -1,8 C 0,0 km/h
01.12.2017 23:00 -2,4 C 86 % 1016,0 hPa 0,0 l/m 0,0 km/h O-NO -4,4 C -2,4 C 0,0 km/h
02.12.2017 00:00 -2,6 C 86 % 1016,3 hPa 0,0 l/m 0,0 km/h O-NO -4,6 C -2,6 C 0,0 km/h
02.12.2017 01:00 -2,4 C 86 % 1016,6 hPa 0,0 l/m 0,0 km/h O-NO -4,4 C -2,4 C 0,0 km/h
02.12.2017 02:00 -1,7 C 85 % 1016,7 hPa 0,0 l/m 0,0 km/h O-NO -3,9 C -1,7 C 0,0 km/h
02.12.2017 03:00 -2,2 C 86 % 1017,0 hPa 0,0 l/m 0,0 km/h O-NO -4,2 C -2,2 C 0,0 km/h
02.12.2017 04:00 -2,9 C 85 % 1017,8 hPa 0,0 l/m 0,0 km/h O-NO -5,1 C -2,9 C 0,0 km/h
02.12.2017 05:00 -2,7 C 85 % 1017,9 hPa 0,0 l/m 0,0 km/h O-NO -4,9 C -2,7 C 0,0 km/h
02.12.2017 06:00 -2,4 C 85 % 1018,3 hPa 0,0 l/m 0,0 km/h N-NO -4,6 C -2,4 C 0,0 km/h
02.12.2017 07:00 -3,4 C 85 % 1018,7 hPa 0,0 l/m 0,0 km/h N-NO -5,5 C -3,4 C 0,0 km/h
02.12.2017 08:00 -2,8 C 84 % 1018,7 hPa 0,0 l/m 0,0 km/h N-NO -5,1 C -2,8 C 0,0 km/h
02.12.2017 09:00 -1,2 C 83 % 1019,4 hPa 0,0 l/m 0,0 km/h N-NO -3,7 C -1,2 C 0,0 km/h
02.12.2017 10:00 7,6 C 82 % 1019,8 hPa 0,0 l/m 0,0 km/h N 4,7 C 7,6 C 0,0 km/h
02.12.2017 11:00 6,1 C 65 % 1019,4 hPa 0,0 l/m 9,7 km/h N-NO 0,0 C 3,5 C 5,4 km/h
02.12.2017 12:00 5,4 C 68 % 1019,5 hPa 0,0 l/m 0,0 km/h N-NO -0,0 C 5,4 C 0,0 km/h
02.12.2017 13:00 6,6 C 62 % 1019,4 hPa 0,0 l/m 0,0 km/h N-NO -0,1 C 6,6 C 0,0 km/h
02.12.2017 14:00 8,1 C 57 % 1019,9 hPa 0,0 l/m 5,2 km/h N-NO 0,1 C 8,1 C 2,9 km/h
02.12.2017 15:00 5,9 C 59 % 1020,1 hPa 0,0 l/m 11,0 km/h N -1,5 C 2,4 C 6,1 km/h
02.12.2017 16:00 0,6 C 72 % 1020,3 hPa 0,0 l/m 5,8 km/h N-NO -3,9 C 0,6 C 3,2 km/h
02.12.2017 17:00 -2,2 C 77 % 1020,7 hPa 0,0 l/m 0,0 km/h N-NO -5,7 C -2,2 C 0,0 km/h
02.12.2017 18:00 -2,7 C 81 % 1021,1 hPa 0,0 l/m 0,0 km/h N-NO -5,5 C -2,7 C 0,0 km/h
02.12.2017 19:00 -3,6 C 83 % 1021,6 hPa 0,0 l/m 0,0 km/h N-NO -6,1 C -3,6 C 0,0 km/h
02.12.2017 20:00 -3,9 C 84 % 1022,1 hPa 0,0 l/m 0,0 km/h N-NO -6,2 C -3,9 C 0,0 km/h
02.12.2017 21:00 -4,0 C 85 % 1022,2 hPa 0,0 l/m 0,0 km/h O -6,1 C -4,0 C 0,0 km/h
02.12.2017 22:00 -4,1 C 85 % 1022,5 hPa 0,0 l/m 0,0 km/h O-SO -6,2 C -4,1 C 0,0 km/h
02.12.2017 23:00 -4,4 C 86 % 1022,6 hPa 0,0 l/m 0,0 km/h O-SO -6,4 C -4,4 C 0,0 km/h
03.12.2017 00:00 -4,5 C 86 % 1022,6 hPa 0,0 l/m 0,0 km/h O-SO -6,5 C -4,5 C 0,0 km/h
03.12.2017 01:00 -4,2 C 86 % 1022,7 hPa 0,0 l/m 0,0 km/h O-SO -6,2 C -4,2 C 0,0 km/h
03.12.2017 02:00 -3,5 C 86 % 1022,9 hPa 0,0 l/m 0,0 km/h O-SO -5,5 C -3,5 C 0,0 km/h
03.12.2017 03:00 -3,1 C 86 % 1023,1 hPa 0,0 l/m 0,0 km/h O-NO -5,1 C -3,1 C 0,0 km/h
03.12.2017 04:00 -2,9 C 86 % 1023,0 hPa 0,0 l/m 0,0 km/h NO -4,9 C -2,9 C 0,0 km/h
03.12.2017 05:00 -2,7 C 86 % 1023,4 hPa 0,0 l/m 0,0 km/h O-NO -4,7 C -2,7 C 0,0 km/h
03.12.2017 06:00 -2,7 C 86 % 1023,7 hPa 0,0 l/m 0,0 km/h O-NO -4,7 C -2,7 C 0,0 km/h
03.12.2017 07:00 -2,8 C 86 % 1023,8 hPa 0,0 l/m 0,0 km/h N-NO -4,8 C -2,8 C 0,0 km/h
03.12.2017 08:00 -2,4 C 85 % 1024,3 hPa 0,0 l/m 0,0 km/h SO -4,6 C -2,4 C 0,0 km/h
03.12.2017 09:00 3,2 C 86 % 1024,6 hPa 0,0 l/m 0,0 km/h SO 1,1 C 3,2 C 0,0 km/h
03.12.2017 10:00 5,3 C 67 % 1024,9 hPa 0,0 l/m 0,0 km/h W -0,3 C 5,3 C 0,0 km/h
03.12.2017 11:00 6,3 C 65 % 1024,4 hPa 0,0 l/m 0,0 km/h W 0,2 C 6,3 C 0,0 km/h
03.12.2017 12:00 5,9 C 57 % 1024,2 hPa 0,0 l/m 0,0 km/h S-SW -2,0 C 5,9 C 0,0 km/h
03.12.2017 13:00 2,9 C 63 % 1023,9 hPa 0,0 l/m 0,0 km/h S-SW -3,4 C 2,9 C 0,0 km/h
03.12.2017 14:00 1,6 C 67 % 1024,1 hPa 0,0 l/m 0,0 km/h S -3,9 C 1,6 C 0,0 km/h
03.12.2017 15:00 1,0 C 71 % 1023,9 hPa 0,0 l/m 0,0 km/h S -3,7 C 1,0 C 0,0 km/h
03.12.2017 16:00 0,4 C 73 % 1024,0 hPa 0,0 l/m 0,0 km/h S-SW -3,9 C 0,4 C 0,0 km/h
03.12.2017 17:00 0,1 C 77 % 1025,0 hPa 0,0 l/m 0,0 km/h SW -3,4 C 0,1 C 0,0 km/h
03.12.2017 18:00 -0,4 C 82 % 1025,2 hPa 0,0 l/m 0,0 km/h W-SW -3,1 C -0,4 C 0,0 km/h
03.12.2017 19:00 -0,7 C 85 % 1025,9 hPa 0,0 l/m 0,0 km/h W-SW -2,9 C -0,7 C 0,0 km/h
03.12.2017 20:00 -0,7 C 86 % 1025,4 hPa 0,0 l/m 0,0 km/h SW -2,7 C -0,7 C 0,0 km/h
03.12.2017 21:00 -0,7 C 86 % 1025,5 hPa 0,0 l/m 0,0 km/h W-SW -2,7 C -0,7 C 0,0 km/h
03.12.2017 22:00 -0,7 C 86 % 1026,0 hPa 0,0 l/m 0,0 km/h W -2,7 C -0,7 C 0,0 km/h
03.12.2017 23:00 -0,8 C 86 % 1026,3 hPa 0,0 l/m 0,0 km/h W -2,8 C -0,8 C 0,0 km/h
Min-Datum _ 03.12.17 02.12.17 29.11.17 - 27.11.17 - 03.12.17 28.11.17 27.11.17
_ Min-Zeit 00:53 14:53 06:53 - 00:53 - 00:53 19:53 00:53
Minimum _ -4,5 C 57 % 1003,3 hPa - 0,0 km/h - -6,5 C -7,9 C 0,0 km/h
Max-Datum _ 01.12.17 29.11.17 03.12.17 28.11.17 27.11.17 - 02.12.17 01.12.17 27.11.17
_ Max-Zeit 14:53 15:53 23:53 16:53 20:53 - 10:53 14:53 20:53
Maximum _ 8,7 C 86 % 1026,3 hPa 1,6 l/m 48,6 km/h
S-SW
- 4,7 C 8,7 C 27,0 km/h
S-SW
Durchschnitt _ 2,0 C 80 % 1013,2 hPa #17,1 l/m 6,3 km/h S-SW -1,1 C -0,3 C 3,5 km/h
www.sexauwetter.de